sensor_id;sensor_type;location;lat;lon;timestamp;temperature;humidity
22167;DHT22;11249;52.468;13.776;2023-04-03T00:00:47;1.30;99.90
22167;DHT22;11249;52.468;13.776;2023-04-03T00:03:17;1.20;99.90
22167;DHT22;11249;52.468;13.776;2023-04-03T00:05:44;1.20;99.90
22167;DHT22;11249;52.468;13.776;2023-04-03T00:08:11;1.20;99.90
22167;DHT22;11249;52.468;13.776;2023-04-03T00:10:38;1.20;99.90
22167;DHT22;11249;52.468;13.776;2023-04-03T00:13:06;1.20;99.90
22167;DHT22;11249;52.468;13.776;2023-04-03T00:15:34;1.10;99.90
22167;DHT22;11249;52.468;13.776;2023-04-03T00:18:02;1.10;99.90
22167;DHT22;11249;52.468;13.776;2023-04-03T00:20:28;1.10;99.90
22167;DHT22;11249;52.468;13.776;2023-04-03T00:22:55;1.20;99.90
22167;DHT22;11249;52.468;13.776;2023-04-03T00:25:22;1.10;99.90
22167;DHT22;11249;52.468;13.776;2023-04-03T00:27:49;1.10;99.90
22167;DHT22;11249;52.468;13.776;2023-04-03T00:30:18;1.00;99.90
22167;DHT22;11249;52.468;13.776;2023-04-03T00:32:45;1.00;99.90
22167;DHT22;11249;52.468;13.776;2023-04-03T00:35:13;0.90;99.90
22167;DHT22;11249;52.468;13.776;2023-04-03T00:37:43;1.00;99.90
22167;DHT22;11249;52.468;13.776;2023-04-03T00:40:10;1.00;99.90
22167;DHT22;11249;52.468;13.776;2023-04-03T00:42:40;1.00;99.90
22167;DHT22;11249;52.468;13.776;2023-04-03T00:47:38;0.90;99.90
22167;DHT22;11249;52.468;13.776;2023-04-03T00:50:06;0.90;99.90
22167;DHT22;11249;52.468;13.776;2023-04-03T00:52:33;0.90;99.90
22167;DHT22;11249;52.468;13.776;2023-04-03T00:55:04;0.90;99.90
22167;DHT22;11249;52.468;13.776;2023-04-03T00:57:32;0.80;99.90
22167;DHT22;11249;52.468;13.776;2023-04-03T01:00:05;0.80;99.90
22167;DHT22;11249;52.468;13.776;2023-04-03T01:02:33;0.80;99.90
22167;DHT22;11249;52.468;13.776;2023-04-03T01:05:00;0.70;99.90
22167;DHT22;11249;52.468;13.776;2023-04-03T01:07:29;0.70;99.90
22167;DHT22;11249;52.468;13.776;2023-04-03T01:09:58;0.80;99.90
22167;DHT22;11249;52.468;13.776;2023-04-03T01:12:49;0.80;99.90
22167;DHT22;11249;52.468;13.776;2023-04-03T01:15:25;0.80;99.90
22167;DHT22;11249;52.468;13.776;2023-04-03T01:17:54;0.80;99.90
22167;DHT22;11249;52.468;13.776;2023-04-03T01:25:40;0.70;99.90
22167;DHT22;11249;52.468;13.776;2023-04-03T01:28:10;0.70;99.90
22167;DHT22;11249;52.468;13.776;2023-04-03T01:33:10;0.60;99.90
22167;DHT22;11249;52.468;13.776;2023-04-03T01:35:37;0.60;99.90
22167;DHT22;11249;52.468;13.776;2023-04-03T01:38:04;0.60;99.90
22167;DHT22;11249;52.468;13.776;2023-04-03T01:40:31;0.70;99.90
22167;DHT22;11249;52.468;13.776;2023-04-03T01:42:58;0.60;99.90
22167;DHT22;11249;52.468;13.776;2023-04-03T01:45:25;0.60;99.90
22167;DHT22;11249;52.468;13.776;2023-04-03T01:47:52;0.60;99.90
22167;DHT22;11249;52.468;13.776;2023-04-03T01:50:18;0.60;99.90
22167;DHT22;11249;52.468;13.776;2023-04-03T01:52:45;0.60;99.90
22167;DHT22;11249;52.468;13.776;2023-04-03T01:55:12;0.60;99.90
22167;DHT22;11249;52.468;13.776;2023-04-03T01:57:39;0.60;99.90
22167;DHT22;11249;52.468;13.776;2023-04-03T02:00:06;0.50;99.90
22167;DHT22;11249;52.468;13.776;2023-04-03T02:02:34;0.60;99.90
22167;DHT22;11249;52.468;13.776;2023-04-03T02:05:01;0.60;99.90
22167;DHT22;11249;52.468;13.776;2023-04-03T02:07:27;0.60;99.90
22167;DHT22;11249;52.468;13.776;2023-04-03T02:09:54;0.60;99.90
22167;DHT22;11249;52.468;13.776;2023-04-03T02:12:21;0.60;99.90
22167;DHT22;11249;52.468;13.776;2023-04-03T02:14:48;0.50;99.90
22167;DHT22;11249;52.468;13.776;2023-04-03T02:17:14;0.50;99.90
22167;DHT22;11249;52.468;13.776;2023-04-03T02:19:41;0.40;99.90
22167;DHT22;11249;52.468;13.776;2023-04-03T02:22:08;0.40;99.90
22167;DHT22;11249;52.468;13.776;2023-04-03T02:24:35;0.30;99.90
22167;DHT22;11249;52.468;13.776;2023-04-03T02:27:01;0.30;99.90
22167;DHT22;11249;52.468;13.776;2023-04-03T02:29:28;0.30;99.90
22167;DHT22;11249;52.468;13.776;2023-04-03T02:31:55;0.30;99.90
22167;DHT22;11249;52.468;13.776;2023-04-03T02:34:22;0.30;99.90
22167;DHT22;11249;52.468;13.776;2023-04-03T02:36:48;0.20;99.90
22167;DHT22;11249;52.468;13.776;2023-04-03T02:39:15;0.20;99.90
22167;DHT22;11249;52.468;13.776;2023-04-03T02:41:42;0.20;99.90
22167;DHT22;11249;52.468;13.776;2023-04-03T02:44:12;0.10;99.90
22167;DHT22;11249;52.468;13.776;2023-04-03T02:46:38;0.10;99.90
22167;DHT22;11249;52.468;13.776;2023-04-03T02:49:06;0.00;99.90
22167;DHT22;11249;52.468;13.776;2023-04-03T02:51:33;0.00;99.90
22167;DHT22;11249;52.468;13.776;2023-04-03T02:54:00;0.00;99.90
22167;DHT22;11249;52.468;13.776;2023-04-03T02:56:27;-0.10;99.90
22167;DHT22;11249;52.468;13.776;2023-04-03T02:58:53;-0.10;99.90
22167;DHT22;11249;52.468;13.776;2023-04-03T03:01:20;-0.20;99.90
22167;DHT22;11249;52.468;13.776;2023-04-03T03:03:54;-0.30;99.90
22167;DHT22;11249;52.468;13.776;2023-04-03T03:06:21;-0.30;99.90
22167;DHT22;11249;52.468;13.776;2023-04-03T03:08:48;-0.30;99.90
22167;DHT22;11249;52.468;13.776;2023-04-03T03:11:14;-0.40;99.90
22167;DHT22;11249;52.468;13.776;2023-04-03T03:13:41;-0.40;99.90
22167;DHT22;11249;52.468;13.776;2023-04-03T03:16:08;-0.40;99.90
22167;DHT22;11249;52.468;13.776;2023-04-03T03:18:35;-0.40;99.90
22167;DHT22;11249;52.468;13.776;2023-04-03T03:21:02;-0.40;99.90
22167;DHT22;11249;52.468;13.776;2023-04-03T03:23:30;-0.40;99.90
22167;DHT22;11249;52.468;13.776;2023-04-03T03:26:00;-0.50;99.90
22167;DHT22;11249;52.468;13.776;2023-04-03T03:28:28;-0.50;99.90
22167;DHT22;11249;52.468;13.776;2023-04-03T03:30:54;-0.50;99.90
22167;DHT22;11249;52.468;13.776;2023-04-03T03:33:21;-0.50;99.90
22167;DHT22;11249;52.468;13.776;2023-04-03T03:35:48;-0.50;99.90
22167;DHT22;11249;52.468;13.776;2023-04-03T03:38:15;-0.60;99.90
22167;DHT22;11249;52.468;13.776;2023-04-03T03:40:41;-0.60;99.90
22167;DHT22;11249;52.468;13.776;2023-04-03T03:43:08;-0.60;99.90
22167;DHT22;11249;52.468;13.776;2023-04-03T03:45:35;-0.60;99.90
22167;DHT22;11249;52.468;13.776;2023-04-03T03:48:04;-0.70;99.90
22167;DHT22;11249;52.468;13.776;2023-04-03T03:50:30;-0.70;99.90
22167;DHT22;11249;52.468;13.776;2023-04-03T03:52:57;-0.80;99.90
22167;DHT22;11249;52.468;13.776;2023-04-03T03:55:24;-0.80;99.90
22167;DHT22;11249;52.468;13.776;2023-04-03T03:57:51;-0.80;99.90
22167;DHT22;11249;52.468;13.776;2023-04-03T04:00:18;-0.80;99.90
22167;DHT22;11249;52.468;13.776;2023-04-03T04:02:45;-0.90;99.90
22167;DHT22;11249;52.468;13.776;2023-04-03T04:05:12;-0.90;99.90
22167;DHT22;11249;52.468;13.776;2023-04-03T04:07:39;-0.90;99.90
22167;DHT22;11249;52.468;13.776;2023-04-03T04:10:06;-0.90;99.90
22167;DHT22;11249;52.468;13.776;2023-04-03T04:12:33;-0.90;99.90
22167;DHT22;11249;52.468;13.776;2023-04-03T04:15:02;-1.00;99.90
22167;DHT22;11249;52.468;13.776;2023-04-03T04:17:29;-0.90;99.90
22167;DHT22;11249;52.468;13.776;2023-04-03T04:19:56;-1.00;99.90
22167;DHT22;11249;52.468;13.776;2023-04-03T04:22:22;-1.00;99.90
22167;DHT22;11249;52.468;13.776;2023-04-03T04:24:49;-1.00;99.90
22167;DHT22;11249;52.468;13.776;2023-04-03T04:27:16;-1.00;99.90
22167;DHT22;11249;52.468;13.776;2023-04-03T04:29:42;-1.10;99.90
22167;DHT22;11249;52.468;13.776;2023-04-03T04:32:09;-1.10;99.90
22167;DHT22;11249;52.468;13.776;2023-04-03T04:34:37;-1.10;99.90
22167;DHT22;11249;52.468;13.776;2023-04-03T04:37:04;-1.10;99.90
22167;DHT22;11249;52.468;13.776;2023-04-03T04:39:31;-1.10;99.90
22167;DHT22;11249;52.468;13.776;2023-04-03T04:41:57;-1.10;99.90
22167;DHT22;11249;52.468;13.776;2023-04-03T04:44:24;-1.10;99.90
22167;DHT22;11249;52.468;13.776;2023-04-03T04:46:51;-1.20;99.90
22167;DHT22;11249;52.468;13.776;2023-04-03T04:49:18;-1.20;99.90
22167;DHT22;11249;52.468;13.776;2023-04-03T04:51:45;-1.20;99.90
22167;DHT22;11249;52.468;13.776;2023-04-03T04:54:18;-1.20;99.90
22167;DHT22;11249;52.468;13.776;2023-04-03T04:56:44;-1.20;99.90
22167;DHT22;11249;52.468;13.776;2023-04-03T04:59:11;-1.20;99.90
22167;DHT22;11249;52.468;13.776;2023-04-03T05:01:38;-1.20;99.90
22167;DHT22;11249;52.468;13.776;2023-04-03T05:04:05;-1.20;99.90
22167;DHT22;11249;52.468;13.776;2023-04-03T05:06:32;-1.30;99.90
22167;DHT22;11249;52.468;13.776;2023-04-03T05:09:02;-1.20;99.90
22167;DHT22;11249;52.468;13.776;2023-04-03T05:11:29;-1.30;99.90
22167;DHT22;11249;52.468;13.776;2023-04-03T05:13:56;-1.30;99.90
22167;DHT22;11249;52.468;13.776;2023-04-03T05:16:23;-1.30;99.90
22167;DHT22;11249;52.468;13.776;2023-04-03T05:18:50;-1.30;99.90
22167;DHT22;11249;52.468;13.776;2023-04-03T05:21:16;-1.30;99.90
22167;DHT22;11249;52.468;13.776;2023-04-03T05:23:44;-1.30;99.90
22167;DHT22;11249;52.468;13.776;2023-04-03T05:26:11;-1.20;99.90
22167;DHT22;11249;52.468;13.776;2023-04-03T05:28:38;-1.20;99.90
22167;DHT22;11249;52.468;13.776;2023-04-03T05:31:05;-1.20;99.90
22167;DHT22;11249;52.468;13.776;2023-04-03T05:33:32;-1.20;99.90
22167;DHT22;11249;52.468;13.776;2023-04-03T05:36:03;-1.10;99.90
22167;DHT22;11249;52.468;13.776;2023-04-03T05:38:30;-1.10;99.90
22167;DHT22;11249;52.468;13.776;2023-04-03T05:40:57;-1.00;99.90
22167;DHT22;11249;52.468;13.776;2023-04-03T05:43:23;-1.00;99.90
22167;DHT22;11249;52.468;13.776;2023-04-03T05:45:51;-0.90;99.90
22167;DHT22;11249;52.468;13.776;2023-04-03T05:48:18;-0.80;99.90
22167;DHT22;11249;52.468;13.776;2023-04-03T05:50:46;-0.70;99.90
22167;DHT22;11249;52.468;13.776;2023-04-03T05:53:19;-0.60;99.90
22167;DHT22;11249;52.468;13.776;2023-04-03T05:55:47;-0.50;99.90
22167;DHT22;11249;52.468;13.776;2023-04-03T05:58:14;-0.40;99.90
22167;DHT22;11249;52.468;13.776;2023-04-03T06:00:40;-0.40;99.90
22167;DHT22;11249;52.468;13.776;2023-04-03T06:03:07;-0.30;99.90
22167;DHT22;11249;52.468;13.776;2023-04-03T06:05:34;-0.20;99.90
22167;DHT22;11249;52.468;13.776;2023-04-03T06:08:02;-0.20;99.90
22167;DHT22;11249;52.468;13.776;2023-04-03T06:10:29;-0.10;99.90
22167;DHT22;11249;52.468;13.776;2023-04-03T06:12:57;-0.10;99.90
22167;DHT22;11249;52.468;13.776;2023-04-03T06:15:23;0.00;99.90
22167;DHT22;11249;52.468;13.776;2023-04-03T06:17:51;0.10;99.90
22167;DHT22;11249;52.468;13.776;2023-04-03T06:20:18;0.20;99.90
22167;DHT22;11249;52.468;13.776;2023-04-03T06:22:44;0.20;99.90
22167;DHT22;11249;52.468;13.776;2023-04-03T06:25:12;0.30;99.90
22167;DHT22;11249;52.468;13.776;2023-04-03T06:27:39;0.30;99.90
22167;DHT22;11249;52.468;13.776;2023-04-03T06:30:06;0.40;99.90
22167;DHT22;11249;52.468;13.776;2023-04-03T06:32:33;0.50;99.90
22167;DHT22;11249;52.468;13.776;2023-04-03T06:35:00;0.60;99.90
22167;DHT22;11249;52.468;13.776;2023-04-03T06:37:27;0.70;99.90
22167;DHT22;11249;52.468;13.776;2023-04-03T06:39:55;0.70;99.90
22167;DHT22;11249;52.468;13.776;2023-04-03T06:42:22;0.70;99.90
22167;DHT22;11249;52.468;13.776;2023-04-03T06:44:49;0.80;99.90
22167;DHT22;11249;52.468;13.776;2023-04-03T06:47:17;0.90;99.90
22167;DHT22;11249;52.468;13.776;2023-04-03T06:49:44;1.00;99.90
22167;DHT22;11249;52.468;13.776;2023-04-03T06:52:11;1.10;99.90
22167;DHT22;11249;52.468;13.776;2023-04-03T06:54:39;1.30;99.90
22167;DHT22;11249;52.468;13.776;2023-04-03T06:57:07;1.50;99.90
22167;DHT22;11249;52.468;13.776;2023-04-03T06:59:34;1.60;99.90
22167;DHT22;11249;52.468;13.776;2023-04-03T07:02:03;1.80;99.90
22167;DHT22;11249;52.468;13.776;2023-04-03T07:04:30;1.90;99.90
22167;DHT22;11249;52.468;13.776;2023-04-03T07:06:57;1.90;99.90
22167;DHT22;11249;52.468;13.776;2023-04-03T07:09:23;2.00;99.90
22167;DHT22;11249;52.468;13.776;2023-04-03T07:11:51;2.10;99.90
22167;DHT22;11249;52.468;13.776;2023-04-03T07:14:17;2.20;99.90
22167;DHT22;11249;52.468;13.776;2023-04-03T07:16:44;2.30;99.90
22167;DHT22;11249;52.468;13.776;2023-04-03T07:19:11;2.40;99.90
22167;DHT22;11249;52.468;13.776;2023-04-03T07:21:38;2.50;99.90
22167;DHT22;11249;52.468;13.776;2023-04-03T07:24:05;2.60;99.90
22167;DHT22;11249;52.468;13.776;2023-04-03T07:26:34;2.70;99.90
22167;DHT22;11249;52.468;13.776;2023-04-03T07:29:02;2.70;99.90
22167;DHT22;11249;52.468;13.776;2023-04-03T07:31:28;2.80;99.90
22167;DHT22;11249;52.468;13.776;2023-04-03T07:33:55;2.90;99.90
22167;DHT22;11249;52.468;13.776;2023-04-03T07:36:22;3.00;99.90
22167;DHT22;11249;52.468;13.776;2023-04-03T07:38:50;3.00;99.90
22167;DHT22;11249;52.468;13.776;2023-04-03T07:41:18;3.10;99.90
22167;DHT22;11249;52.468;13.776;2023-04-03T07:43:46;3.20;99.90
22167;DHT22;11249;52.468;13.776;2023-04-03T07:46:13;3.20;99.90
22167;DHT22;11249;52.468;13.776;2023-04-03T07:48:40;3.20;99.90
22167;DHT22;11249;52.468;13.776;2023-04-03T07:51:07;3.30;99.90
22167;DHT22;11249;52.468;13.776;2023-04-03T07:53:34;3.30;99.90
22167;DHT22;11249;52.468;13.776;2023-04-03T07:56:01;3.40;99.90
22167;DHT22;11249;52.468;13.776;2023-04-03T07:58:29;3.60;99.90
22167;DHT22;11249;52.468;13.776;2023-04-03T08:00:56;3.70;99.90
22167;DHT22;11249;52.468;13.776;2023-04-03T08:03:23;3.70;99.90
22167;DHT22;11249;52.468;13.776;2023-04-03T08:05:51;3.80;99.90
22167;DHT22;11249;52.468;13.776;2023-04-03T08:08:20;3.80;99.90
22167;DHT22;11249;52.468;13.776;2023-04-03T08:10:49;3.90;99.90
22167;DHT22;11249;52.468;13.776;2023-04-03T08:13:17;3.90;99.90
22167;DHT22;11249;52.468;13.776;2023-04-03T08:15:44;3.60;99.90
22167;DHT22;11249;52.468;13.776;2023-04-03T08:18:11;3.60;99.90
22167;DHT22;11249;52.468;13.776;2023-04-03T08:20:39;3.80;99.90
22167;DHT22;11249;52.468;13.776;2023-04-03T08:23:07;3.70;99.90
22167;DHT22;11249;52.468;13.776;2023-04-03T08:25:38;3.70;99.90
22167;DHT22;11249;52.468;13.776;2023-04-03T08:28:05;3.80;99.90
22167;DHT22;11249;52.468;13.776;2023-04-03T08:30:33;4.00;99.90
22167;DHT22;11249;52.468;13.776;2023-04-03T08:33:03;4.00;99.90
22167;DHT22;11249;52.468;13.776;2023-04-03T08:35:30;4.00;99.90
22167;DHT22;11249;52.468;13.776;2023-04-03T08:37:57;3.90;99.90
22167;DHT22;11249;52.468;13.776;2023-04-03T08:40:24;3.90;99.90
22167;DHT22;11249;52.468;13.776;2023-04-03T08:43:04;3.90;99.90
22167;DHT22;11249;52.468;13.776;2023-04-03T08:45:46;4.10;99.90
22167;DHT22;11249;52.468;13.776;2023-04-03T08:48:19;4.20;99.90
22167;DHT22;11249;52.468;13.776;2023-04-03T08:50:49;4.20;99.90
22167;DHT22;11249;52.468;13.776;2023-04-03T08:53:21;4.20;99.90
22167;DHT22;11249;52.468;13.776;2023-04-03T08:55:50;4.30;99.90
22167;DHT22;11249;52.468;13.776;2023-04-03T08:58:29;4.30;99.90
22167;DHT22;11249;52.468;13.776;2023-04-03T09:01:00;4.40;99.90
22167;DHT22;11249;52.468;13.776;2023-04-03T09:03:34;4.50;99.90
22167;DHT22;11249;52.468;13.776;2023-04-03T09:06:20;4.50;99.90
22167;DHT22;11249;52.468;13.776;2023-04-03T09:09:07;4.50;99.90
22167;DHT22;11249;52.468;13.776;2023-04-03T09:14:38;4.50;99.90
22167;DHT22;11249;52.468;13.776;2023-04-03T09:17:38;4.60;99.90
22167;DHT22;11249;52.468;13.776;2023-04-03T09:22:57;4.80;99.90
22167;DHT22;11249;52.468;13.776;2023-04-03T09:25:31;4.70;99.90
22167;DHT22;11249;52.468;13.776;2023-04-03T09:28:00;4.80;99.90
22167;DHT22;11249;52.468;13.776;2023-04-03T09:30:28;4.80;99.90
22167;DHT22;11249;52.468;13.776;2023-04-03T09:32:56;4.90;99.90
22167;DHT22;11249;52.468;13.776;2023-04-03T09:35:35;4.90;99.90
22167;DHT22;11249;52.468;13.776;2023-04-03T09:38:17;5.00;99.90
22167;DHT22;11249;52.468;13.776;2023-04-03T09:40:47;4.90;99.90
22167;DHT22;11249;52.468;13.776;2023-04-03T09:43:28;5.10;99.90
22167;DHT22;11249;52.468;13.776;2023-04-03T09:45:56;4.90;99.90
22167;DHT22;11249;52.468;13.776;2023-04-03T09:48:58;5.10;99.90
22167;DHT22;11249;52.468;13.776;2023-04-03T09:51:34;5.00;99.90
22167;DHT22;11249;52.468;13.776;2023-04-03T09:54:30;5.20;99.90
22167;DHT22;11249;52.468;13.776;2023-04-03T09:57:06;5.20;99.90
22167;DHT22;11249;52.468;13.776;2023-04-03T09:59:34;5.30;99.90
22167;DHT22;11249;52.468;13.776;2023-04-03T10:02:22;5.30;99.90
22167;DHT22;11249;52.468;13.776;2023-04-03T10:04:49;5.20;99.90
22167;DHT22;11249;52.468;13.776;2023-04-03T10:07:36;5.30;99.90
22167;DHT22;11249;52.468;13.776;2023-04-03T10:10:20;5.50;99.90
22167;DHT22;11249;52.468;13.776;2023-04-03T10:15:41;5.60;99.90
22167;DHT22;11249;52.468;13.776;2023-04-03T10:18:29;5.60;99.90
22167;DHT22;11249;52.468;13.776;2023-04-03T10:21:04;5.50;99.90
22167;DHT22;11249;52.468;13.776;2023-04-03T10:23:48;5.60;99.90
22167;DHT22;11249;52.468;13.776;2023-04-03T10:26:34;5.60;99.90
22167;DHT22;11249;52.468;13.776;2023-04-03T10:34:45;5.40;99.90
22167;DHT22;11249;52.468;13.776;2023-04-03T10:37:27;5.40;99.90
22167;DHT22;11249;52.468;13.776;2023-04-03T10:40:05;5.30;99.90
22167;DHT22;11249;52.468;13.776;2023-04-03T10:42:48;5.50;99.90
22167;DHT22;11249;52.468;13.776;2023-04-03T10:45:29;5.50;99.90
22167;DHT22;11249;52.468;13.776;2023-04-03T10:54:00;5.30;99.90
22167;DHT22;11249;52.468;13.776;2023-04-03T10:56:31;5.70;99.90
22167;DHT22;11249;52.468;13.776;2023-04-03T10:59:23;5.90;99.90
22167;DHT22;11249;52.468;13.776;2023-04-03T11:01:55;6.00;99.90
22167;DHT22;11249;52.468;13.776;2023-04-03T11:04:27;5.90;99.90
22167;DHT22;11249;52.468;13.776;2023-04-03T11:07:02;5.60;99.90
22167;DHT22;11249;52.468;13.776;2023-04-03T11:09:33;5.60;99.90
22167;DHT22;11249;52.468;13.776;2023-04-03T11:12:10;5.70;99.90
22167;DHT22;11249;52.468;13.776;2023-04-03T11:14:39;5.60;99.90
22167;DHT22;11249;52.468;13.776;2023-04-03T11:20:24;5.60;99.90
22167;DHT22;11249;52.468;13.776;2023-04-03T11:23:00;5.60;99.90
22167;DHT22;11249;52.468;13.776;2023-04-03T11:25:30;5.60;99.90
22167;DHT22;11249;52.468;13.776;2023-04-03T11:28:04;5.70;99.90
22167;DHT22;11249;52.468;13.776;2023-04-03T11:30:47;5.80;99.90
22167;DHT22;11249;52.468;13.776;2023-04-03T11:33:48;6.00;99.90
22167;DHT22;11249;52.468;13.776;2023-04-03T11:38:59;6.30;99.90
22167;DHT22;11249;52.468;13.776;2023-04-03T11:41:30;6.10;99.90
22167;DHT22;11249;52.468;13.776;2023-04-03T11:44:04;6.20;99.90
22167;DHT22;11249;52.468;13.776;2023-04-03T11:46:56;6.00;99.90
22167;DHT22;11249;52.468;13.776;2023-04-03T11:49:52;5.80;99.90
22167;DHT22;11249;52.468;13.776;2023-04-03T12:19:27;5.90;99.90
22167;DHT22;11249;52.468;13.776;2023-04-03T12:22:11;5.80;99.90
22167;DHT22;11249;52.468;13.776;2023-04-03T12:24:42;5.80;99.90
22167;DHT22;11249;52.468;13.776;2023-04-03T12:27:26;5.80;99.90
22167;DHT22;11249;52.468;13.776;2023-04-03T12:35:29;5.90;99.90
22167;DHT22;11249;52.468;13.776;2023-04-03T12:41:41;6.20;99.90
22167;DHT22;11249;52.468;13.776;2023-04-03T12:44:31;6.20;99.90
22167;DHT22;11249;52.468;13.776;2023-04-03T12:47:22;6.30;99.90
22167;DHT22;11249;52.468;13.776;2023-04-03T12:49:49;6.20;99.90
22167;DHT22;11249;52.468;13.776;2023-04-03T12:52:35;6.10;99.90
22167;DHT22;11249;52.468;13.776;2023-04-03T12:55:14;6.00;99.90
22167;DHT22;11249;52.468;13.776;2023-04-03T12:57:41;6.00;99.90
22167;DHT22;11249;52.468;13.776;2023-04-03T13:00:28;6.00;99.90
22167;DHT22;11249;52.468;13.776;2023-04-03T13:02:56;5.80;99.90
22167;DHT22;11249;52.468;13.776;2023-04-03T13:05:23;5.70;99.90
22167;DHT22;11249;52.468;13.776;2023-04-03T13:08:02;5.90;99.90
22167;DHT22;11249;52.468;13.776;2023-04-03T13:10:30;6.10;99.90
22167;DHT22;11249;52.468;13.776;2023-04-03T13:13:09;6.10;99.90
22167;DHT22;11249;52.468;13.776;2023-04-03T13:15:45;6.30;99.90
22167;DHT22;11249;52.468;13.776;2023-04-03T13:18:33;6.30;99.90
22167;DHT22;11249;52.468;13.776;2023-04-03T13:21:15;6.60;99.90
22167;DHT22;11249;52.468;13.776;2023-04-03T13:23:51;7.00;99.90
22167;DHT22;11249;52.468;13.776;2023-04-03T13:26:33;6.90;99.90
22167;DHT22;11249;52.468;13.776;2023-04-03T13:29:06;6.80;99.90
22167;DHT22;11249;52.468;13.776;2023-04-03T13:31:45;6.70;99.90
22167;DHT22;11249;52.468;13.776;2023-04-03T13:34:17;6.50;99.90
22167;DHT22;11249;52.468;13.776;2023-04-03T13:36:59;6.20;99.90
22167;DHT22;11249;52.468;13.776;2023-04-03T13:39:35;6.10;99.90
22167;DHT22;11249;52.468;13.776;2023-04-03T13:42:25;6.00;99.90
22167;DHT22;11249;52.468;13.776;2023-04-03T13:45:20;5.90;99.90
22167;DHT22;11249;52.468;13.776;2023-04-03T13:47:49;5.90;99.90
22167;DHT22;11249;52.468;13.776;2023-04-03T13:50:23;6.00;99.90
22167;DHT22;11249;52.468;13.776;2023-04-03T13:52:54;6.10;99.90
22167;DHT22;11249;52.468;13.776;2023-04-03T13:55:28;6.10;99.90
22167;DHT22;11249;52.468;13.776;2023-04-03T13:57:59;6.20;99.90
22167;DHT22;11249;52.468;13.776;2023-04-03T14:00:37;6.20;99.90
22167;DHT22;11249;52.468;13.776;2023-04-03T14:03:25;6.50;99.90
22167;DHT22;11249;52.468;13.776;2023-04-03T14:05:53;7.10;99.90
22167;DHT22;11249;52.468;13.776;2023-04-03T14:08:20;7.40;99.90
22167;DHT22;11249;52.468;13.776;2023-04-03T14:11:01;7.30;99.90
22167;DHT22;11249;52.468;13.776;2023-04-03T14:13:32;7.40;99.90
22167;DHT22;11249;52.468;13.776;2023-04-03T14:15:59;7.30;99.90
22167;DHT22;11249;52.468;13.776;2023-04-03T14:18:41;7.10;99.90
22167;DHT22;11249;52.468;13.776;2023-04-03T14:21:12;7.00;99.90
22167;DHT22;11249;52.468;13.776;2023-04-03T14:23:39;6.90;99.90
22167;DHT22;11249;52.468;13.776;2023-04-03T14:26:12;6.80;99.90
22167;DHT22;11249;52.468;13.776;2023-04-03T14:28:39;6.80;99.90
22167;DHT22;11249;52.468;13.776;2023-04-03T14:31:11;6.70;99.90
22167;DHT22;11249;52.468;13.776;2023-04-03T14:33:38;6.60;99.90
22167;DHT22;11249;52.468;13.776;2023-04-03T14:36:13;6.30;99.90
22167;DHT22;11249;52.468;13.776;2023-04-03T14:38:41;6.10;99.90
22167;DHT22;11249;52.468;13.776;2023-04-03T14:41:09;6.10;99.90
22167;DHT22;11249;52.468;13.776;2023-04-03T14:43:42;6.20;99.90
22167;DHT22;11249;52.468;13.776;2023-04-03T14:46:16;6.10;99.90
22167;DHT22;11249;52.468;13.776;2023-04-03T14:48:44;5.90;99.90
22167;DHT22;11249;52.468;13.776;2023-04-03T14:51:13;6.00;99.90
22167;DHT22;11249;52.468;13.776;2023-04-03T14:53:41;6.10;99.90
22167;DHT22;11249;52.468;13.776;2023-04-03T14:56:18;6.10;99.90
22167;DHT22;11249;52.468;13.776;2023-04-03T14:58:45;6.00;99.90
22167;DHT22;11249;52.468;13.776;2023-04-03T15:01:16;6.00;99.90
22167;DHT22;11249;52.468;13.776;2023-04-03T15:03:44;6.00;99.90
22167;DHT22;11249;52.468;13.776;2023-04-03T15:06:13;6.00;99.90
22167;DHT22;11249;52.468;13.776;2023-04-03T15:08:41;5.90;99.90
22167;DHT22;11249;52.468;13.776;2023-04-03T15:11:10;5.90;99.90
22167;DHT22;11249;52.468;13.776;2023-04-03T15:13:37;5.80;99.90
22167;DHT22;11249;52.468;13.776;2023-04-03T15:16:06;5.90;99.90
22167;DHT22;11249;52.468;13.776;2023-04-03T15:18:38;5.90;99.90
22167;DHT22;11249;52.468;13.776;2023-04-03T15:21:05;6.00;99.90
22167;DHT22;11249;52.468;13.776;2023-04-03T15:23:32;5.90;99.90
22167;DHT22;11249;52.468;13.776;2023-04-03T15:25:59;5.90;99.90
22167;DHT22;11249;52.468;13.776;2023-04-03T15:28:30;5.90;99.90
22167;DHT22;11249;52.468;13.776;2023-04-03T15:30:59;5.90;99.90
22167;DHT22;11249;52.468;13.776;2023-04-03T15:33:26;5.90;99.90
22167;DHT22;11249;52.468;13.776;2023-04-03T15:35:53;5.90;99.90
22167;DHT22;11249;52.468;13.776;2023-04-03T15:38:33;5.90;99.90
22167;DHT22;11249;52.468;13.776;2023-04-03T15:41:00;5.80;99.90
22167;DHT22;11249;52.468;13.776;2023-04-03T15:43:27;5.70;99.90
22167;DHT22;11249;52.468;13.776;2023-04-03T15:45:57;5.70;99.90
22167;DHT22;11249;52.468;13.776;2023-04-03T15:48:25;5.90;99.90
22167;DHT22;11249;52.468;13.776;2023-04-03T15:50:52;6.10;99.90
22167;DHT22;11249;52.468;13.776;2023-04-03T15:53:18;6.80;99.90
22167;DHT22;11249;52.468;13.776;2023-04-03T15:55:45;7.20;99.90
22167;DHT22;11249;52.468;13.776;2023-04-03T15:58:12;7.40;99.90
22167;DHT22;11249;52.468;13.776;2023-04-03T16:00:39;7.60;99.90
22167;DHT22;11249;52.468;13.776;2023-04-03T16:03:10;7.60;99.90
22167;DHT22;11249;52.468;13.776;2023-04-03T16:05:38;7.20;99.90
22167;DHT22;11249;52.468;13.776;2023-04-03T16:08:05;6.90;99.90
22167;DHT22;11249;52.468;13.776;2023-04-03T16:10:35;6.70;99.90
22167;DHT22;11249;52.468;13.776;2023-04-03T16:13:03;6.40;99.90
22167;DHT22;11249;52.468;13.776;2023-04-03T16:15:30;6.00;99.90
22167;DHT22;11249;52.468;13.776;2023-04-03T16:18:00;5.90;99.90
22167;DHT22;11249;52.468;13.776;2023-04-03T16:20:27;5.80;99.90
22167;DHT22;11249;52.468;13.776;2023-04-03T16:22:56;5.70;99.90
22167;DHT22;11249;52.468;13.776;2023-04-03T16:25:24;5.70;99.90
22167;DHT22;11249;52.468;13.776;2023-04-03T16:27:51;5.50;99.90
22167;DHT22;11249;52.468;13.776;2023-04-03T16:30:18;5.50;99.90
22167;DHT22;11249;52.468;13.776;2023-04-03T16:32:45;5.50;99.90
22167;DHT22;11249;52.468;13.776;2023-04-03T16:35:12;5.40;99.90
22167;DHT22;11249;52.468;13.776;2023-04-03T16:37:39;5.40;99.90
22167;DHT22;11249;52.468;13.776;2023-04-03T16:40:07;5.40;99.90
22167;DHT22;11249;52.468;13.776;2023-04-03T16:42:34;5.30;99.90
22167;DHT22;11249;52.468;13.776;2023-04-03T16:45:04;5.10;99.90
22167;DHT22;11249;52.468;13.776;2023-04-03T16:47:32;4.90;99.90
22167;DHT22;11249;52.468;13.776;2023-04-03T16:49:59;4.80;99.90
22167;DHT22;11249;52.468;13.776;2023-04-03T16:52:26;4.80;99.90
22167;DHT22;11249;52.468;13.776;2023-04-03T16:54:53;4.80;99.90
22167;DHT22;11249;52.468;13.776;2023-04-03T16:57:22;4.70;99.90
22167;DHT22;11249;52.468;13.776;2023-04-03T16:59:51;4.80;99.90